Time;durP1;ratioP1;P1;durP2;ratioP2;P2;SDS_P1;SDS_P2;PMS_P1;PMS_P2;Temp;Humidity;BMP_temperature;BMP_pressure;BME280_temperature;BME280_humidity;BME280_pressure;Samples;Min_cycle;Max_cycle;Signal;HPM_P1;HPM_P2
2023/08/17 00:00:52;;;;;;;1.23;1.23;;;23.70;79.00;;;;;;5072563;28;43966;-74
2023/08/17 00:03:20;;;;;;;1.30;1.30;;;23.80;78.60;;;;;;5073594;28;43790;-72
2023/08/17 00:05:48;;;;;;;1.10;1.10;;;24.00;78.20;;;;;;5065355;28;43568;-72
2023/08/17 00:08:17;;;;;;;1.20;1.20;;;24.00;77.70;;;;;;5067280;28;43479;-74
2023/08/17 00:10:45;;;;;;;1.10;1.10;;;24.10;77.70;;;;;;5070580;28;43516;-71
2023/08/17 00:13:15;;;;;;;1.20;1.20;;;24.00;77.60;;;;;;5073854;28;43446;-74
2023/08/17 00:15:45;;;;;;;1.20;1.20;;;24.00;77.70;;;;;;5071073;28;43623;-72
2023/08/17 00:18:14;;;;;;;1.30;1.30;;;23.90;78.20;;;;;;5065040;28;43454;-75
2023/08/17 00:20:44;;;;;;;1.00;1.00;;;23.90;78.20;;;;;;5061943;28;43420;-71
2023/08/17 00:23:12;;;;;;;1.20;1.20;;;23.90;78.20;;;;;;5059477;28;43507;-69
2023/08/17 00:25:40;;;;;;;1.40;1.10;;;23.80;78.20;;;;;;5066362;28;43619;-69
2023/08/17 00:28:08;;;;;;;1.00;1.00;;;23.80;78.60;;;;;;5062651;28;44716;-69
2023/08/17 00:30:37;;;;;;;1.10;1.10;;;23.80;78.80;;;;;;5064724;28;43462;-69
2023/08/17 00:33:05;;;;;;;1.10;1.10;;;23.70;78.70;;;;;;5059246;28;43479;-70
2023/08/17 00:35:33;;;;;;;0.90;0.90;;;23.70;78.60;;;;;;5061965;28;43959;-69
2023/08/17 00:38:01;;;;;;;1.00;1.00;;;23.70;78.90;;;;;;5059157;28;43649;-71
2023/08/17 00:40:29;;;;;;;1.00;1.00;;;23.70;79.10;;;;;;5065166;28;43364;-72
2023/08/17 00:42:57;;;;;;;1.10;1.10;;;23.80;78.80;;;;;;5062469;28;43983;-70
2023/08/17 00:45:26;;;;;;;1.10;1.10;;;23.90;78.40;;;;;;5060865;28;44168;-70
2023/08/17 00:47:57;;;;;;;1.07;1.07;;;24.00;77.80;;;;;;5063756;28;43952;-69
2023/08/17 00:50:26;;;;;;;1.00;1.00;;;24.00;77.70;;;;;;5056616;28;43406;-69
2023/08/17 00:52:54;;;;;;;1.20;1.20;;;24.00;77.70;;;;;;5062780;28;43379;-72
2023/08/17 00:55:22;;;;;;;1.07;1.07;;;24.00;77.70;;;;;;5063880;28;43607;-71
2023/08/17 00:57:50;;;;;;;1.00;1.00;;;23.90;78.10;;;;;;5062853;28;45450;-70
2023/08/17 01:00:18;;;;;;;1.10;1.10;;;23.90;78.20;;;;;;5061258;28;44042;-72
2023/08/17 01:02:47;;;;;;;1.00;1.00;;;23.90;78.30;;;;;;5087060;22;43465;-69
2023/08/17 01:05:19;;;;;;;1.07;1.07;;;23.80;78.30;;;;;;5079752;28;43841;-69
2023/08/17 01:07:48;;;;;;;1.10;1.10;;;23.80;78.70;;;;;;5081658;27;43484;-69
2023/08/17 01:10:16;;;;;;;1.10;1.10;;;23.80;78.70;;;;;;5062221;28;44029;-70
2023/08/17 01:12:47;;;;;;;1.00;1.00;;;23.70;78.60;;;;;;5075452;28;43435;-69
2023/08/17 01:15:16;;;;;;;1.20;1.20;;;23.70;78.60;;;;;;5084673;28;43709;-71
2023/08/17 01:17:47;;;;;;;1.03;1.03;;;23.70;78.80;;;;;;5081793;28;43469;-69
2023/08/17 01:20:15;;;;;;;1.10;1.10;;;23.70;79.10;;;;;;5073991;28;43413;-69
2023/08/17 01:22:46;;;;;;;1.07;1.07;;;23.70;78.80;;;;;;5082822;28;43450;-69
2023/08/17 01:25:16;;;;;;;1.00;1.00;;;23.90;78.50;;;;;;5063605;28;45589;-70
2023/08/17 01:27:46;;;;;;;1.10;1.10;;;24.00;78.10;;;;;;5060893;28;43493;-70
2023/08/17 01:30:15;;;;;;;1.10;1.10;;;24.00;77.80;;;;;;5080860;28;43450;-70
2023/08/17 01:32:45;;;;;;;0.90;0.90;;;24.00;77.90;;;;;;5067563;28;44013;-71
2023/08/17 01:35:17;;;;;;;1.10;1.10;;;23.90;78.60;;;;;;5063201;28;46103;-70
2023/08/17 01:37:45;;;;;;;1.00;1.00;;;23.90;78.40;;;;;;5084316;28;43933;-69
2023/08/17 01:40:13;;;;;;;1.03;1.03;;;23.90;78.40;;;;;;5073661;27;43426;-72
2023/08/17 01:42:43;;;;;;;1.00;1.00;;;23.80;78.30;;;;;;5064202;28;43503;-68
2023/08/17 01:45:12;;;;;;;0.90;0.90;;;23.80;78.30;;;;;;5065160;27;45693;-68
2023/08/17 01:47:40;;;;;;;1.20;1.20;;;23.70;78.80;;;;;;5062138;28;45668;-70
2023/08/17 01:50:09;;;;;;;1.00;1.00;;;23.70;78.80;;;;;;5064878;28;43467;-70
2023/08/17 01:52:37;;;;;;;1.07;1.07;;;23.80;78.60;;;;;;5083331;27;43610;-70
2023/08/17 01:55:06;;;;;;;1.10;1.10;;;23.90;78.10;;;;;;5065981;28;45954;-69
2023/08/17 01:57:36;;;;;;;1.10;1.10;;;24.00;77.80;;;;;;5079306;28;43477;-71
2023/08/17 02:00:10;;;;;;;1.00;1.00;;;24.00;77.70;;;;;;5061885;28;43992;-70
2023/08/17 02:02:41;;;;;;;1.10;1.10;;;24.00;77.70;;;;;;5073649;28;43964;-70
2023/08/17 02:05:09;;;;;;;1.10;1.10;;;23.90;77.90;;;;;;5063567;28;43890;-71
2023/08/17 02:07:39;;;;;;;1.10;1.10;;;23.90;78.30;;;;;;5065227;28;44044;-69
2023/08/17 02:10:07;;;;;;;1.10;1.10;;;23.90;78.40;;;;;;5065669;28;43442;-70
2023/08/17 02:12:35;;;;;;;1.03;1.03;;;23.80;78.30;;;;;;5068033;28;43467;-70
2023/08/17 02:15:04;;;;;;;0.97;0.97;;;23.70;78.20;;;;;;5041677;28;46276;-70
2023/08/17 02:17:33;;;;;;;1.00;1.00;;;23.70;78.80;;;;;;5060373;28;43387;-70
2023/08/17 02:20:03;;;;;;;1.20;1.20;;;23.70;78.80;;;;;;5050083;28;43410;-70
2023/08/17 02:22:31;;;;;;;1.00;1.00;;;23.70;78.70;;;;;;5070175;28;43772;-69
2023/08/17 02:24:59;;;;;;;1.00;1.00;;;23.60;78.50;;;;;;5062761;28;43612;-70
2023/08/17 02:27:27;;;;;;;1.10;1.10;;;23.60;78.90;;;;;;5061051;28;43501;-70
2023/08/17 02:29:55;;;;;;;1.10;1.10;;;23.60;79.10;;;;;;5047345;28;43470;-70
2023/08/17 02:32:23;;;;;;;1.00;1.00;;;23.70;78.90;;;;;;5050027;28;43428;-70
2023/08/17 02:34:52;;;;;;;1.10;1.10;;;23.80;78.50;;;;;;5066051;28;43619;-69
2023/08/17 02:37:20;;;;;;;1.10;1.10;;;23.90;78.10;;;;;;5068180;28;43386;-70
2023/08/17 02:39:48;;;;;;;1.00;1.00;;;24.00;77.90;;;;;;5064288;28;43428;-69
2023/08/17 02:42:16;;;;;;;1.10;1.10;;;24.00;77.90;;;;;;5060757;28;43414;-70
2023/08/17 02:44:44;;;;;;;0.90;0.90;;;23.90;77.90;;;;;;5046044;28;45687;-75
2023/08/17 02:47:12;;;;;;;1.00;1.00;;;23.90;78.40;;;;;;5062146;28;43508;-77
2023/08/17 02:49:40;;;;;;;0.90;0.90;;;23.80;78.30;;;;;;5064987;28;43458;-70
2023/08/17 02:52:11;;;;;;;1.00;1.00;;;23.80;78.40;;;;;;5042502;28;43579;-70
2023/08/17 02:54:39;;;;;;;1.00;1.00;;;23.80;78.40;;;;;;5046544;28;43901;-70
2023/08/17 02:57:07;;;;;;;1.00;1.00;;;23.70;78.80;;;;;;5049583;28;43470;-71
2023/08/17 02:59:35;;;;;;;1.00;1.00;;;23.70;78.90;;;;;;5068566;28;43409;-70
2023/08/17 03:02:03;;;;;;;0.90;0.90;;;23.80;78.70;;;;;;5064566;28;44102;-71
2023/08/17 03:04:31;;;;;;;1.07;1.07;;;23.80;78.40;;;;;;5059302;28;43651;-71
2023/08/17 03:06:59;;;;;;;0.90;0.90;;;23.80;78.30;;;;;;5066295;28;43479;-70
2023/08/17 03:09:28;;;;;;;1.00;1.00;;;23.80;78.30;;;;;;5062977;28;43384;-70
2023/08/17 03:11:56;;;;;;;1.10;1.10;;;23.80;78.70;;;;;;5060736;28;43404;-71
2023/08/17 03:14:24;;;;;;;0.80;0.80;;;23.70;78.50;;;;;;5067829;28;44004;-70
2023/08/17 03:16:52;;;;;;;0.90;0.90;;;23.80;78.50;;;;;;5066022;28;43564;-70
2023/08/17 03:19:21;;;;;;;1.00;1.00;;;23.70;78.40;;;;;;5048609;28;43465;-70
2023/08/17 03:21:49;;;;;;;0.83;0.83;;;23.70;78.80;;;;;;5068471;28;43335;-70
2023/08/17 03:24:17;;;;;;;1.00;1.00;;;23.70;78.90;;;;;;5044011;28;45686;-69
2023/08/17 03:26:46;;;;;;;1.10;1.10;;;23.70;78.90;;;;;;5062912;28;43500;-68
2023/08/17 03:29:15;;;;;;;1.03;1.03;;;23.60;78.60;;;;;;5064592;28;43868;-67
2023/08/17 03:31:43;;;;;;;1.20;1.20;;;23.60;79.00;;;;;;5064817;28;43338;-67
2023/08/17 03:34:11;;;;;;;1.00;1.00;;;23.60;79.10;;;;;;5042190;28;45733;-69
2023/08/17 03:36:42;;;;;;;0.90;0.90;;;23.70;79.00;;;;;;5040800;28;44126;-68
2023/08/17 03:39:10;;;;;;;0.90;0.90;;;23.80;78.50;;;;;;5045539;28;43429;-67
2023/08/17 03:41:38;;;;;;;1.10;1.10;;;23.90;78.20;;;;;;5046761;28;43584;-66
2023/08/17 03:44:09;;;;;;;0.80;0.80;;;24.00;78.00;;;;;;5044035;28;45398;-67
2023/08/17 03:46:37;;;;;;;1.00;1.00;;;23.90;77.90;;;;;;5067975;28;43470;-67
2023/08/17 03:49:05;;;;;;;0.90;0.90;;;23.90;77.90;;;;;;5048564;28;43542;-69
2023/08/17 03:51:33;;;;;;;1.00;1.00;;;23.80;78.40;;;;;;5047606;28;43441;-67
2023/08/17 03:54:01;;;;;;;1.00;1.00;;;23.80;78.50;;;;;;5049085;28;45700;-67
2023/08/17 03:56:29;;;;;;;0.90;0.90;;;23.70;78.40;;;;;;5060236;28;43461;-66
2023/08/17 03:58:57;;;;;;;1.10;1.10;;;23.70;78.30;;;;;;5045149;28;43391;-67
2023/08/17 04:01:27;;;;;;;1.20;1.20;;;23.70;78.80;;;;;;5047376;28;43573;-67
2023/08/17 04:03:56;;;;;;;1.00;1.00;;;23.60;78.80;;;;;;5046341;28;45742;-68
2023/08/17 04:06:24;;;;;;;1.00;1.00;;;23.60;78.70;;;;;;5042508;28;44518;-67
2023/08/17 04:08:52;;;;;;;1.00;1.00;;;23.70;78.70;;;;;;5046544;28;44402;-68
2023/08/17 04:11:20;;;;;;;1.00;1.00;;;23.60;78.80;;;;;;5061408;28;43828;-67
2023/08/17 04:13:49;;;;;;;0.90;0.90;;;23.60;79.10;;;;;;5048630;28;45789;-67
2023/08/17 04:16:19;;;;;;;0.90;0.90;;;23.70;79.10;;;;;;5045181;28;44889;-66
2023/08/17 04:18:48;;;;;;;0.90;0.90;;;23.70;78.70;;;;;;5059534;28;43324;-67
2023/08/17 04:21:16;;;;;;;0.97;0.97;;;23.90;78.30;;;;;;5043495;28;43439;-68
2023/08/17 04:23:44;;;;;;;0.80;0.80;;;24.00;78.00;;;;;;5049017;28;44595;-67
2023/08/17 04:26:12;;;;;;;0.90;0.90;;;23.90;77.90;;;;;;5044091;28;44813;-67
2023/08/17 04:28:40;;;;;;;0.90;0.90;;;23.90;77.90;;;;;;5042954;28;43532;-68
2023/08/17 04:31:09;;;;;;;0.90;0.90;;;23.90;78.30;;;;;;5061407;28;44268;-67
2023/08/17 04:33:41;;;;;;;0.90;0.90;;;23.80;78.30;;;;;;5053240;28;44818;-69
2023/08/17 04:36:10;;;;;;;0.90;0.90;;;23.80;78.30;;;;;;5044823;28;44756;-67
2023/08/17 04:38:38;;;;;;;0.90;0.90;;;23.80;78.30;;;;;;5045200;28;43446;-68
2023/08/17 04:41:06;;;;;;;1.00;1.00;;;23.70;78.50;;;;;;5044695;28;44931;-67
2023/08/17 04:43:34;;;;;;;2.43;1.30;;;23.70;78.80;;;;;;5060388;28;43616;-68
2023/08/17 04:46:02;;;;;;;1.50;1.40;;;23.70;78.80;;;;;;5040861;28;45042;-67
2023/08/17 04:48:30;;;;;;;1.67;1.60;;;23.70;78.70;;;;;;5059761;28;43388;-67
2023/08/17 04:50:58;;;;;;;2.57;2.10;;;23.60;78.60;;;;;;5045095;28;43988;-68
2023/08/17 04:53:28;;;;;;;3.63;2.30;;;23.60;79.10;;;;;;5045580;28;45881;-69
2023/08/17 04:55:56;;;;;;;3.07;2.73;;;23.60;79.00;;;;;;5044913;28;45058;-67
2023/08/17 04:58:24;;;;;;;3.17;2.63;;;23.70;78.70;;;;;;5046943;28;43536;-69
2023/08/17 05:00:52;;;;;;;3.13;2.67;;;23.90;78.30;;;;;;5043496;28;43462;-70
2023/08/17 05:03:20;;;;;;;4.40;2.20;;;23.90;78.00;;;;;;5048636;28;45072;-69
2023/08/17 05:06:01;;;;;;;2.60;2.30;;;23.90;77.90;;;;;;5042006;28;44979;-70
2023/08/17 05:08:30;;;;;;;5.93;2.60;;;23.90;77.90;;;;;;5039131;28;43419;-70
2023/08/17 05:10:58;;;;;;;3.60;2.73;;;23.80;78.20;;;;;;5064197;28;43484;-70
2023/08/17 05:13:27;;;;;;;4.05;3.00;;;23.80;78.50;;;;;;5048110;28;45633;-70
2023/08/17 05:15:58;;;;;;;5.23;3.20;;;23.70;78.40;;;;;;5035547;28;44892;-69
2023/08/17 05:18:26;;;;;;;3.20;2.90;;;23.70;78.40;;;;;;5045309;28;44085;-70
2023/08/17 05:20:55;;;;;;;4.43;3.30;;;23.70;78.50;;;;;;5045072;28;43385;-69
2023/08/17 05:23:23;;;;;;;7.33;3.30;;;23.60;78.90;;;;;;5067050;28;45088;-70
2023/08/17 05:25:53;;;;;;;9.53;4.10;;;23.70;79.00;;;;;;5043187;28;43333;-70
2023/08/17 05:28:21;;;;;;;8.17;4.10;;;23.70;78.60;;;;;;5047551;28;43562;-70
2023/08/17 05:30:49;;;;;;;4.60;3.40;;;23.80;78.30;;;;;;5062976;28;43400;-69
2023/08/17 05:33:17;;;;;;;6.30;3.70;;;23.80;78.20;;;;;;5049248;28;45451;-70
2023/08/17 05:35:46;;;;;;;5.53;3.53;;;23.80;78.20;;;;;;5068553;28;43940;-69
2023/08/17 05:38:14;;;;;;;5.63;3.60;;;23.80;78.60;;;;;;5049161;28;43776;-70
2023/08/17 05:40:42;;;;;;;3.53;3.23;;;23.80;78.60;;;;;;5049104;28;44171;-70
2023/08/17 05:43:12;;;;;;;6.10;3.80;;;23.80;78.50;;;;;;5044945;28;44970;-68
2023/08/17 05:45:40;;;;;;;4.57;3.60;;;23.70;78.30;;;;;;5045067;28;45148;-69
2023/08/17 05:48:08;;;;;;;4.87;3.70;;;23.60;78.50;;;;;;5050243;28;43394;-69
2023/08/17 05:50:36;;;;;;;5.33;3.70;;;23.70;78.90;;;;;;5062551;28;43953;-71
2023/08/17 05:53:06;;;;;;;4.60;3.67;;;23.60;78.80;;;;;;5067416;28;43615;-73
2023/08/17 05:55:34;;;;;;;5.30;3.93;;;23.60;78.60;;;;;;5068042;28;43372;-70
2023/08/17 05:58:03;;;;;;;5.87;3.70;;;23.60;78.70;;;;;;5066398;28;43529;-67
2023/08/17 06:00:33;;;;;;;5.93;3.80;;;23.60;79.10;;;;;;5067745;28;43425;-67
2023/08/17 06:03:01;;;;;;;3.90;3.60;;;23.60;79.10;;;;;;5063817;28;43601;-69
2023/08/17 06:05:30;;;;;;;4.00;3.63;;;23.50;78.90;;;;;;5066168;28;43458;-67
2023/08/17 06:07:58;;;;;;;5.60;3.80;;;23.50;78.80;;;;;;5065840;28;43451;-70
2023/08/17 06:10:26;;;;;;;5.70;4.30;;;23.50;79.30;;;;;;5063280;28;43439;-69
2023/08/17 06:12:54;;;;;;;4.27;3.90;;;23.60;79.20;;;;;;5066933;28;44321;-70
2023/08/17 06:15:22;;;;;;;4.20;3.80;;;23.70;78.90;;;;;;5044571;28;43667;-70
2023/08/17 06:17:51;;;;;;;4.20;3.80;;;23.80;78.40;;;;;;5063426;28;43389;-69
2023/08/17 06:20:20;;;;;;;4.63;4.07;;;23.90;78.00;;;;;;5067250;28;43438;-70
2023/08/17 06:22:48;;;;;;;5.10;3.70;;;23.90;77.90;;;;;;5044302;28;45393;-70
2023/08/17 06:25:16;;;;;;;4.37;3.50;;;23.90;77.90;;;;;;5056906;28;43441;-70
2023/08/17 06:27:44;;;;;;;4.20;3.50;;;23.80;78.00;;;;;;5068716;28;43461;-71
2023/08/17 06:30:13;;;;;;;4.80;3.60;;;23.80;78.30;;;;;;5063627;28;43484;-70
2023/08/17 06:32:41;;;;;;;3.67;3.37;;;23.70;78.30;;;;;;5064788;28;43607;-70
2023/08/17 06:35:10;;;;;;;3.70;3.17;;;23.70;78.30;;;;;;5059302;28;43999;-69
2023/08/17 06:37:40;;;;;;;4.00;3.07;;;23.60;78.20;;;;;;5067298;28;43404;-70
2023/08/17 06:40:09;;;;;;;4.27;3.87;;;23.60;78.80;;;;;;5065479;28;43583;-69
2023/08/17 06:42:37;;;;;;;3.87;3.30;;;23.60;78.80;;;;;;5063129;28;44784;-69
2023/08/17 06:45:07;;;;;;;3.70;3.40;;;23.60;78.80;;;;;;5062025;28;43392;-69
2023/08/17 06:47:35;;;;;;;3.63;3.40;;;23.60;78.60;;;;;;5066755;28;43417;-69
2023/08/17 06:50:03;;;;;;;4.30;3.77;;;23.50;79.00;;;;;;5059593;28;43425;-71
2023/08/17 06:52:34;;;;;;;3.60;3.27;;;23.60;79.20;;;;;;5066872;28;43691;-70
2023/08/17 06:55:02;;;;;;;3.53;3.27;;;23.60;78.90;;;;;;5061974;28;43494;-74
2023/08/17 06:57:30;;;;;;;4.83;3.70;;;23.70;78.40;;;;;;5063657;28;43374;-70
2023/08/17 06:59:58;;;;;;;3.57;3.27;;;23.80;78.10;;;;;;5067434;28;43614;-71
2023/08/17 07:02:27;;;;;;;3.73;3.43;;;23.90;78.00;;;;;;5065157;28;43612;-72
2023/08/17 07:05:14;;;;;;;3.20;3.00;;;23.80;77.90;;;;;;5060301;28;43444;-70
2023/08/17 07:07:43;;;;;;;3.83;3.47;;;23.70;78.00;;;;;;5063452;28;43372;-67
2023/08/17 07:10:11;;;;;;;3.23;3.03;;;23.70;78.50;;;;;;5062526;28;43529;-69
2023/08/17 07:12:40;;;;;;;3.07;2.90;;;23.70;78.50;;;;;;5061538;28;45889;-68
2023/08/17 07:15:08;;;;;;;3.33;3.13;;;23.70;78.50;;;;;;5069437;28;43408;-69
2023/08/17 07:17:37;;;;;;;3.23;3.03;;;23.60;78.40;;;;;;5045423;28;43480;-68
2023/08/17 07:20:07;;;;;;;3.63;3.33;;;23.60;78.90;;;;;;5069206;28;43382;-68
2023/08/17 07:22:49;;;;;;;3.33;3.03;;;23.60;78.90;;;;;;5062002;28;43607;-68
2023/08/17 07:25:17;;;;;;;3.47;3.17;;;23.50;78.70;;;;;;5061330;28;43359;-68
2023/08/17 07:27:45;;;;;;;2.83;2.63;;;23.50;78.70;;;;;;5055569;28;44010;-67
2023/08/17 07:30:13;;;;;;;3.27;3.03;;;23.50;79.10;;;;;;5062501;28;43489;-67
2023/08/17 07:32:41;;;;;;;3.20;3.00;;;23.50;79.30;;;;;;5064097;28;43980;-67
2023/08/17 07:35:09;;;;;;;3.23;3.03;;;23.60;79.10;;;;;;5056384;28;43912;-68
2023/08/17 07:37:37;;;;;;;3.07;2.87;;;23.70;78.70;;;;;;5059534;28;43380;-67
2023/08/17 07:40:08;;;;;;;3.40;3.10;;;23.80;78.10;;;;;;5062336;28;43951;-67
2023/08/17 07:42:37;;;;;;;3.47;3.07;;;23.90;77.90;;;;;;5064041;28;44037;-67
2023/08/17 07:45:07;;;;;;;3.07;2.87;;;23.90;77.70;;;;;;5065747;28;43543;-68
2023/08/17 07:47:35;;;;;;;2.73;2.63;;;23.90;77.80;;;;;;5061473;28;43500;-67
2023/08/17 07:50:04;;;;;;;2.60;2.43;;;23.80;78.10;;;;;;5063357;28;43494;-67
2023/08/17 07:52:32;;;;;;;3.13;2.93;;;23.80;78.30;;;;;;5064442;28;43605;-68
2023/08/17 07:55:00;;;;;;;2.80;2.70;;;23.70;78.20;;;;;;5066975;28;44006;-68
2023/08/17 07:57:29;;;;;;;2.87;2.70;;;23.70;78.30;;;;;;5064887;28;43477;-67
2023/08/17 07:59:57;;;;;;;2.70;2.60;;;23.60;78.50;;;;;;5064246;28;43365;-67
2023/08/17 08:02:25;;;;;;;3.17;2.97;;;23.60;78.80;;;;;;5060546;28;43601;-68
2023/08/17 08:04:53;;;;;;;2.50;2.40;;;23.60;78.80;;;;;;5064496;28;44547;-68
2023/08/17 08:07:21;;;;;;;2.33;2.23;;;23.60;78.70;;;;;;5059579;28;43463;-68
2023/08/17 08:09:49;;;;;;;2.93;2.73;;;23.50;78.70;;;;;;5056864;28;43492;-68
2023/08/17 08:12:17;;;;;;;2.90;2.80;;;23.50;79.20;;;;;;5059328;28;43709;-68
2023/08/17 08:14:46;;;;;;;2.40;2.30;;;23.50;79.00;;;;;;5058457;28;43421;-67
2023/08/17 08:17:14;;;;;;;2.73;2.60;;;23.60;78.80;;;;;;5059266;28;43502;-68
2023/08/17 08:19:42;;;;;;;2.70;2.60;;;23.70;78.30;;;;;;5061188;28;43914;-67
2023/08/17 08:22:11;;;;;;;2.57;2.47;;;23.80;78.10;;;;;;5067197;28;43595;-68
2023/08/17 08:24:41;;;;;;;2.43;2.33;;;23.80;78.00;;;;;;5047091;28;45091;-67
2023/08/17 08:27:09;;;;;;;2.57;2.47;;;23.70;78.00;;;;;;5068061;28;43429;-68
2023/08/17 08:29:37;;;;;;;2.70;2.60;;;23.70;78.40;;;;;;5060544;28;44193;-69
2023/08/17 08:32:06;;;;;;;2.30;2.20;;;23.60;78.60;;;;;;5067119;28;43591;-69
2023/08/17 08:34:34;;;;;;;2.77;2.67;;;23.60;78.70;;;;;;5063221;28;43395;-69
2023/08/17 08:37:02;;;;;;;2.50;2.40;;;23.60;78.50;;;;;;5042238;28;43366;-69
2023/08/17 08:39:30;;;;;;;2.43;2.33;;;23.60;78.60;;;;;;5051575;28;43464;-68
2023/08/17 08:41:58;;;;;;;2.43;2.33;;;23.50;79.10;;;;;;5068483;28;43620;-69
2023/08/17 08:44:27;;;;;;;2.30;2.20;;;23.50;79.00;;;;;;5060146;28;43438;-67
2023/08/17 08:46:55;;;;;;;2.67;2.57;;;23.60;78.80;;;;;;5052707;28;43418;-68
2023/08/17 08:49:25;;;;;;;1.90;1.90;;;23.70;78.60;;;;;;5068163;28;43467;-68
2023/08/17 08:51:53;;;;;;;1.90;1.90;;;23.60;78.30;;;;;;5061873;28;43829;-68
2023/08/17 08:54:22;;;;;;;2.23;2.13;;;23.70;78.40;;;;;;5065989;28;43424;-68
2023/08/17 08:56:52;;;;;;;2.43;2.33;;;23.60;78.80;;;;;;5065643;28;43505;-68
2023/08/17 08:59:20;;;;;;;2.10;2.10;;;23.60;78.70;;;;;;5070345;28;43478;-69
2023/08/17 09:01:48;;;;;;;2.13;2.03;;;23.60;78.60;;;;;;5070790;28;43611;-67
2023/08/17 09:04:18;;;;;;;2.13;2.03;;;23.60;78.50;;;;;;5071983;28;43503;-68
2023/08/17 09:06:48;;;;;;;2.10;2.00;;;23.60;78.80;;;;;;5069707;28;43430;-68
2023/08/17 09:09:17;;;;;;;2.33;2.23;;;23.50;79.00;;;;;;5048769;28;43932;-68
2023/08/17 09:11:45;;;;;;;2.07;2.07;;;23.50;79.10;;;;;;5068498;28;43937;-67
2023/08/17 09:14:13;;;;;;;2.40;2.30;;;23.50;78.80;;;;;;5061609;28;44001;-67
2023/08/17 09:16:41;;;;;;;2.00;2.00;;;23.50;78.80;;;;;;5067240;28;43457;-68
2023/08/17 09:19:08;;;;;;;2.57;2.47;;;23.50;79.40;;;;;;5064486;28;43432;-68
2023/08/17 09:21:36;;;;;;;2.17;2.07;;;23.50;79.30;;;;;;5068248;28;43615;-68
2023/08/17 09:24:07;;;;;;;2.00;1.90;;;23.60;78.90;;;;;;5065027;28;43461;-70
2023/08/17 09:26:36;;;;;;;1.80;1.80;;;23.70;78.50;;;;;;5073283;28;43433;-68
2023/08/17 09:29:16;;;;;;;2.10;2.10;;;23.80;78.20;;;;;;5063729;28;43944;-70
2023/08/17 09:31:45;;;;;;;2.00;2.00;;;23.80;78.00;;;;;;5064392;28;43789;-70
2023/08/17 09:34:14;;;;;;;2.13;2.07;;;23.70;78.00;;;;;;5061121;28;43901;-71
2023/08/17 09:36:42;;;;;;;1.90;1.90;;;23.70;78.40;;;;;;5065843;28;43453;-68
2023/08/17 09:39:11;;;;;;;1.70;1.70;;;23.70;78.60;;;;;;5069723;28;43402;-67
2023/08/17 09:41:42;;;;;;;2.10;2.10;;;23.60;78.50;;;;;;5067507;28;43661;-67
2023/08/17 09:44:10;;;;;;;1.97;1.97;;;23.60;78.50;;;;;;5064680;28;44147;-68
2023/08/17 09:46:38;;;;;;;2.10;2.00;;;23.60;78.60;;;;;;5060928;28;43538;-68
2023/08/17 09:49:09;;;;;;;1.80;1.80;;;23.50;79.00;;;;;;5062759;28;43918;-67
2023/08/17 09:51:37;;;;;;;2.03;2.03;;;23.50;79.00;;;;;;5062290;28;44798;-67
2023/08/17 09:54:18;;;;;;;1.80;1.80;;;23.50;78.90;;;;;;5058602;28;43429;-67
2023/08/17 09:56:46;;;;;;;2.00;1.90;;;23.40;78.80;;;;;;5060465;28;43523;-67
2023/08/17 09:59:14;;;;;;;2.13;2.10;;;23.40;79.30;;;;;;5066537;28;43452;-68
2023/08/17 10:01:42;;;;;;;1.70;1.70;;;23.50;79.40;;;;;;5060407;28;43624;-68
2023/08/17 10:04:10;;;;;;;1.60;1.60;;;23.50;79.10;;;;;;5043660;28;44728;-68
2023/08/17 10:06:40;;;;;;;2.00;1.90;;;23.60;78.80;;;;;;5058305;28;43388;-66
2023/08/17 10:09:08;;;;;;;1.90;1.80;;;23.70;78.40;;;;;;5066047;28;43615;-67
2023/08/17 10:11:37;;;;;;;1.80;1.80;;;23.80;78.30;;;;;;5062951;28;43988;-68
2023/08/17 10:14:10;;;;;;;1.60;1.60;;;23.70;78.10;;;;;;5070940;28;43502;-68
2023/08/17 10:16:44;;;;;;;1.50;1.50;;;23.70;78.30;;;;;;5046757;28;44061;-66
2023/08/17 10:19:14;;;;;;;1.87;1.87;;;23.60;78.60;;;;;;5052553;28;43416;-66
2023/08/17 10:21:45;;;;;;;1.67;1.60;;;23.60;78.60;;;;;;5065649;28;43711;-68
2023/08/17 10:24:13;;;;;;;1.70;1.70;;;23.60;78.50;;;;;;5062183;28;43525;-68
2023/08/17 10:26:42;;;;;;;1.63;1.63;;;23.60;78.60;;;;;;5068398;28;44068;-68
2023/08/17 10:29:10;;;;;;;1.63;1.63;;;23.50;79.00;;;;;;5060938;28;43594;-66
2023/08/17 10:31:45;;;;;;;1.60;1.60;;;23.50;79.00;;;;;;5063737;28;43834;-67
2023/08/17 10:34:13;;;;;;;1.70;1.70;;;23.50;78.80;;;;;;5060424;28;43606;-68
2023/08/17 10:36:41;;;;;;;1.53;1.53;;;23.50;79.50;;;;;;5064586;28;43435;-68
2023/08/17 10:39:22;;;;;;;1.50;1.50;;;23.50;79.30;;;;;;5069849;28;43383;-70
2023/08/17 10:41:57;;;;;;;1.80;1.80;;;23.50;79.30;;;;;;5062555;28;43900;-68
2023/08/17 10:44:41;;;;;;;1.53;1.53;;;23.60;79.10;;;;;;5063189;28;43417;-71
2023/08/17 10:47:22;;;;;;;1.83;1.73;;;23.70;78.70;;;;;;5069585;28;43433;-66
2023/08/17 10:49:51;;;;;;;1.67;1.63;;;23.70;78.10;;;;;;5066755;28;43521;-66
2023/08/17 10:52:26;;;;;;;1.50;1.50;;;23.80;78.00;;;;;;5064835;28;43695;-67
2023/08/17 10:54:56;;;;;;;1.50;1.50;;;23.80;78.00;;;;;;5060632;28;43414;-67
2023/08/17 10:57:30;;;;;;;2.20;1.60;;;23.70;78.30;;;;;;5065440;28;43486;-69
2023/08/17 11:00:10;;;;;;;1.70;1.60;;;23.70;79.30;;;;;;5065682;28;43514;-67
2023/08/17 11:02:38;;;;;;;1.60;1.60;;;23.70;79.00;;;;;;5062072;28;44079;-67
2023/08/17 11:05:08;;;;;;;1.70;1.70;;;23.60;78.40;;;;;;5061412;28;43531;-66
2023/08/17 11:07:42;;;;;;;1.60;1.60;;;23.60;78.60;;;;;;5064789;28;44110;-67
2023/08/17 11:10:13;;;;;;;1.40;1.40;;;23.50;79.00;;;;;;5065218;28;43998;-66
2023/08/17 11:12:44;;;;;;;1.50;1.50;;;23.50;79.00;;;;;;5063402;28;43655;-67
2023/08/17 11:15:11;;;;;;;1.50;1.50;;;23.50;78.80;;;;;;5065764;28;43440;-67
2023/08/17 11:17:39;;;;;;;1.80;1.80;;;23.50;78.90;;;;;;5064056;28;44015;-67
2023/08/17 11:20:09;;;;;;;1.50;1.50;;;23.40;79.30;;;;;;5060725;28;43492;-66
2023/08/17 11:22:42;;;;;;;1.33;1.33;;;23.50;79.40;;;;;;5046163;28;44772;-68
2023/08/17 11:25:10;;;;;;;1.40;1.40;;;23.50;79.80;;;;;;5065894;28;43363;-67
2023/08/17 11:27:38;;;;;;;1.30;1.30;;;23.70;78.90;;;;;;5050350;28;43434;-68
2023/08/17 11:30:08;;;;;;;1.43;1.43;;;23.70;78.40;;;;;;5057413;28;43411;-67
2023/08/17 11:32:36;;;;;;;1.53;1.53;;;23.70;78.20;;;;;;5067648;28;43685;-68
2023/08/17 11:35:05;;;;;;;1.40;1.40;;;23.70;78.10;;;;;;5060136;28;43980;-68
2023/08/17 11:37:33;;;;;;;1.40;1.40;;;23.70;78.20;;;;;;5044373;28;43453;-67
2023/08/17 11:40:01;;;;;;;1.50;1.50;;;23.60;78.70;;;;;;5063552;28;43506;-68
2023/08/17 11:42:29;;;;;;;1.47;1.47;;;23.60;78.80;;;;;;5064860;28;43967;-69
2023/08/17 11:44:57;;;;;;;1.40;1.40;;;23.50;78.60;;;;;;5063202;28;43585;-68
2023/08/17 11:47:26;;;;;;;1.40;1.40;;;23.50;78.60;;;;;;5059880;28;43376;-67
2023/08/17 11:50:02;;;;;;;1.50;1.50;;;23.50;79.10;;;;;;5066952;28;43457;-69
2023/08/17 11:52:45;;;;;;;1.30;1.30;;;23.50;79.20;;;;;;5040822;28;45754;-68
2023/08/17 11:55:17;;;;;;;1.50;1.50;;;23.60;79.00;;;;;;5047453;28;44967;-67
2023/08/17 11:57:45;;;;;;;1.37;1.37;;;23.60;78.80;;;;;;5065241;28;43327;-66
2023/08/17 12:00:18;;;;;;;1.43;1.43;;;23.60;78.60;;;;;;5065671;28;43457;-68
2023/08/17 12:02:49;;;;;;;1.60;1.60;;;23.60;78.80;;;;;;5066910;28;43948;-67
2023/08/17 12:05:23;;;;;;;1.50;1.50;;;23.50;79.00;;;;;;5058595;28;43472;-66
2023/08/17 12:07:51;;;;;;;1.50;1.50;;;23.60;79.00;;;;;;5064381;28;43459;-67
2023/08/17 12:10:19;;;;;;;1.37;1.37;;;23.50;78.70;;;;;;5060632;28;43582;-68
2023/08/17 12:12:47;;;;;;;1.60;1.60;;;23.50;78.70;;;;;;5059730;28;44142;-68
2023/08/17 12:15:17;;;;;;;1.50;1.50;;;23.50;79.30;;;;;;5045577;28;44497;-66
2023/08/17 12:17:50;;;;;;;1.20;1.20;;;23.50;79.30;;;;;;5065664;28;43388;-67
2023/08/17 12:20:21;;;;;;;1.50;1.50;;;23.50;79.20;;;;;;5057902;28;44099;-67
2023/08/17 12:22:49;;;;;;;1.33;1.33;;;23.40;79.00;;;;;;5063510;28;43883;-68
2023/08/17 12:25:17;;;;;;;1.23;1.23;;;23.40;79.00;;;;;;5061629;28;43450;-66
2023/08/17 12:27:45;;;;;;;1.50;1.50;;;23.40;79.60;;;;;;5058476;28;43463;-68
2023/08/17 12:30:13;;;;;;;1.50;1.50;;;23.40;79.40;;;;;;5058774;28;43431;-68
2023/08/17 12:32:41;;;;;;;1.63;1.53;;;23.50;79.00;;;;;;5057113;28;43865;-68
2023/08/17 12:35:11;;;;;;;2.63;1.83;;;23.60;78.60;;;;;;5059183;28;43505;-68
2023/08/17 12:37:39;;;;;;;1.48;1.48;;;23.70;78.50;;;;;;5040128;28;43501;-68
2023/08/17 12:40:10;;;;;;;1.50;1.50;;;23.80;78.30;;;;;;5064308;28;43450;-67
2023/08/17 12:42:38;;;;;;;1.60;1.50;;;23.70;78.10;;;;;;5061672;28;43613;-68
2023/08/17 12:45:07;;;;;;;1.80;1.80;;;23.70;78.30;;;;;;5052712;28;45494;-67
2023/08/17 12:47:35;;;;;;;1.63;1.53;;;23.60;78.70;;;;;;5061053;28;43430;-66
2023/08/17 12:50:04;;;;;;;1.50;1.50;;;23.60;78.70;;;;;;5061437;28;44120;-69
2023/08/17 12:52:33;;;;;;;1.70;1.70;;;23.60;78.80;;;;;;5060375;28;44071;-67
2023/08/17 12:55:01;;;;;;;1.60;1.60;;;23.50;78.70;;;;;;5058799;28;43551;-68
2023/08/17 12:57:29;;;;;;;1.63;1.63;;;23.50;79.10;;;;;;5059566;28;43474;-70